sensor_id;sensor_type;location;lat;lon;timestamp;P1;durP1;ratioP1;P2;durP2;ratioP2
66593;SDS011;53450;42.584;23.366;2023-02-03T00:00:57;2.40;;;2.20;;
66593;SDS011;53450;42.584;23.366;2023-02-03T00:03:23;2.33;;;1.80;;
66593;SDS011;53450;42.584;23.366;2023-02-03T00:05:49;2.43;;;2.17;;
66593;SDS011;53450;42.584;23.366;2023-02-03T00:08:14;1.57;;;1.43;;
66593;SDS011;53450;42.584;23.366;2023-02-03T00:10:43;3.10;;;2.70;;
66593;SDS011;53450;42.584;23.366;2023-02-03T00:13:09;8.70;;;3.43;;
66593;SDS011;53450;42.584;23.366;2023-02-03T00:15:34;7.60;;;2.80;;
66593;SDS011;53450;42.584;23.366;2023-02-03T00:18:00;2.83;;;1.70;;
66593;SDS011;53450;42.584;23.366;2023-02-03T00:20:26;3.87;;;2.20;;
66593;SDS011;53450;42.584;23.366;2023-02-03T00:22:51;2.43;;;2.07;;
66593;SDS011;53450;42.584;23.366;2023-02-03T00:25:17;1.77;;;1.67;;
66593;SDS011;53450;42.584;23.366;2023-02-03T00:27:43;3.80;;;2.10;;
66593;SDS011;53450;42.584;23.366;2023-02-03T00:30:09;2.30;;;2.10;;
66593;SDS011;53450;42.584;23.366;2023-02-03T00:32:36;2.47;;;2.00;;
66593;SDS011;53450;42.584;23.366;2023-02-03T00:35:02;2.63;;;1.90;;
66593;SDS011;53450;42.584;23.366;2023-02-03T00:37:28;2.27;;;1.80;;
66593;SDS011;53450;42.584;23.366;2023-02-03T00:39:54;1.40;;;1.40;;
66593;SDS011;53450;42.584;23.366;2023-02-03T00:42:20;1.83;;;1.73;;
66593;SDS011;53450;42.584;23.366;2023-02-03T00:44:45;1.50;;;1.40;;
66593;SDS011;53450;42.584;23.366;2023-02-03T00:47:11;2.67;;;2.10;;
66593;SDS011;53450;42.584;23.366;2023-02-03T00:49:36;1.47;;;1.43;;
66593;SDS011;53450;42.584;23.366;2023-02-03T00:52:02;2.27;;;1.80;;
66593;SDS011;53450;42.584;23.366;2023-02-03T00:54:28;11.77;;;5.83;;
66593;SDS011;53450;42.584;23.366;2023-02-03T00:56:54;2.20;;;2.00;;
66593;SDS011;53450;42.584;23.366;2023-02-03T00:59:19;1.93;;;1.83;;
66593;SDS011;53450;42.584;23.366;2023-02-03T01:01:45;2.63;;;1.80;;
66593;SDS011;53450;42.584;23.366;2023-02-03T01:04:13;3.07;;;2.10;;
66593;SDS011;53450;42.584;23.366;2023-02-03T01:06:39;2.23;;;2.00;;
66593;SDS011;53450;42.584;23.366;2023-02-03T01:09:05;2.67;;;2.47;;
66593;SDS011;53450;42.584;23.366;2023-02-03T01:11:32;1.80;;;1.70;;
66593;SDS011;53450;42.584;23.366;2023-02-03T01:13:58;2.33;;;2.13;;
66593;SDS011;53450;42.584;23.366;2023-02-03T01:16:26;1.90;;;1.80;;
66593;SDS011;53450;42.584;23.366;2023-02-03T01:19:20;1.63;;;1.57;;
66593;SDS011;53450;42.584;23.366;2023-02-03T01:21:45;1.90;;;1.80;;
66593;SDS011;53450;42.584;23.366;2023-02-03T01:24:11;2.17;;;1.87;;
66593;SDS011;53450;42.584;23.366;2023-02-03T01:26:39;2.13;;;1.70;;
66593;SDS011;53450;42.584;23.366;2023-02-03T01:29:05;2.30;;;2.07;;
66593;SDS011;53450;42.584;23.366;2023-02-03T01:31:33;4.80;;;2.83;;
66593;SDS011;53450;42.584;23.366;2023-02-03T01:34:01;3.97;;;2.40;;
66593;SDS011;53450;42.584;23.366;2023-02-03T01:36:28;7.27;;;1.70;;
66593;SDS011;53450;42.584;23.366;2023-02-03T01:38:54;2.47;;;2.27;;
66593;SDS011;53450;42.584;23.366;2023-02-03T01:41:22;8.87;;;2.13;;
66593;SDS011;53450;42.584;23.366;2023-02-03T01:43:53;3.53;;;1.80;;
66593;SDS011;53450;42.584;23.366;2023-02-03T01:46:31;2.63;;;2.43;;
66593;SDS011;53450;42.584;23.366;2023-02-03T01:49:04;2.30;;;1.97;;
66593;SDS011;53450;42.584;23.366;2023-02-03T01:51:34;2.13;;;1.93;;
66593;SDS011;53450;42.584;23.366;2023-02-03T01:54:02;6.83;;;2.07;;
66593;SDS011;53450;42.584;23.366;2023-02-03T01:56:31;2.70;;;2.10;;
66593;SDS011;53450;42.584;23.366;2023-02-03T01:59:00;2.73;;;2.13;;
66593;SDS011;53450;42.584;23.366;2023-02-03T02:01:28;2.13;;;1.97;;
66593;SDS011;53450;42.584;23.366;2023-02-03T02:03:55;2.60;;;2.40;;
66593;SDS011;53450;42.584;23.366;2023-02-03T02:06:24;3.90;;;2.13;;
66593;SDS011;53450;42.584;23.366;2023-02-03T02:08:50;3.10;;;2.43;;
66593;SDS011;53450;42.584;23.366;2023-02-03T02:11:17;2.47;;;2.30;;
66593;SDS011;53450;42.584;23.366;2023-02-03T02:13:45;7.40;;;2.40;;
66593;SDS011;53450;42.584;23.366;2023-02-03T02:16:18;6.07;;;2.97;;
66593;SDS011;53450;42.584;23.366;2023-02-03T02:38:12;3.83;;;2.47;;
66593;SDS011;53450;42.584;23.366;2023-02-03T02:40:51;6.50;;;3.37;;
66593;SDS011;53450;42.584;23.366;2023-02-03T02:43:20;2.63;;;2.40;;
66593;SDS011;53450;42.584;23.366;2023-02-03T02:45:51;3.97;;;2.00;;
66593;SDS011;53450;42.584;23.366;2023-02-03T02:50:56;3.83;;;3.20;;
66593;SDS011;53450;42.584;23.366;2023-02-03T02:53:25;1.97;;;1.87;;
66593;SDS011;53450;42.584;23.366;2023-02-03T02:55:53;5.73;;;1.97;;
66593;SDS011;53450;42.584;23.366;2023-02-03T02:58:21;2.07;;;1.97;;
66593;SDS011;53450;42.584;23.366;2023-02-03T03:00:48;1.77;;;1.67;;
66593;SDS011;53450;42.584;23.366;2023-02-03T03:05:45;2.33;;;2.13;;
66593;SDS011;53450;42.584;23.366;2023-02-03T03:08:21;1.80;;;1.70;;
66593;SDS011;53450;42.584;23.366;2023-02-03T03:10:52;2.50;;;2.27;;
66593;SDS011;53450;42.584;23.366;2023-02-03T03:13:22;1.80;;;1.70;;
66593;SDS011;53450;42.584;23.366;2023-02-03T03:15:53;2.63;;;2.10;;
66593;SDS011;53450;42.584;23.366;2023-02-03T03:18:32;2.07;;;1.93;;
66593;SDS011;53450;42.584;23.366;2023-02-03T03:21:21;2.60;;;2.40;;
66593;SDS011;53450;42.584;23.366;2023-02-03T03:23:51;1.90;;;1.80;;
66593;SDS011;53450;42.584;23.366;2023-02-03T03:26:29;1.97;;;1.87;;
66593;SDS011;53450;42.584;23.366;2023-02-03T03:29:09;1.70;;;1.60;;
66593;SDS011;53450;42.584;23.366;2023-02-03T03:31:40;2.67;;;2.30;;
66593;SDS011;53450;42.584;23.366;2023-02-03T03:34:09;3.67;;;2.20;;
66593;SDS011;53450;42.584;23.366;2023-02-03T03:39:27;3.43;;;2.00;;
66593;SDS011;53450;42.584;23.366;2023-02-03T03:42:22;3.33;;;2.17;;
66593;SDS011;53450;42.584;23.366;2023-02-03T03:45:04;3.87;;;2.97;;
66593;SDS011;53450;42.584;23.366;2023-02-03T03:50:04;3.57;;;3.27;;
66593;SDS011;53450;42.584;23.366;2023-02-03T03:52:35;1.65;;;1.63;;
66593;SDS011;53450;42.584;23.366;2023-02-03T03:55:02;2.53;;;2.33;;
66593;SDS011;53450;42.584;23.366;2023-02-03T03:57:34;3.03;;;2.40;;
66593;SDS011;53450;42.584;23.366;2023-02-03T04:00:04;2.40;;;2.20;;
66593;SDS011;53450;42.584;23.366;2023-02-03T04:02:38;3.23;;;3.00;;
66593;SDS011;53450;42.584;23.366;2023-02-03T04:05:05;2.23;;;1.80;;
66593;SDS011;53450;42.584;23.366;2023-02-03T04:07:40;2.30;;;2.13;;
66593;SDS011;53450;42.584;23.366;2023-02-03T04:10:11;3.07;;;2.73;;
66593;SDS011;53450;42.584;23.366;2023-02-03T04:13:08;3.43;;;3.13;;
66593;SDS011;53450;42.584;23.366;2023-02-03T04:15:59;2.20;;;2.00;;
66593;SDS011;53450;42.584;23.366;2023-02-03T04:18:25;2.23;;;1.70;;
66593;SDS011;53450;42.584;23.366;2023-02-03T04:20:51;3.83;;;2.37;;
66593;SDS011;53450;42.584;23.366;2023-02-03T04:23:16;2.27;;;2.07;;
66593;SDS011;53450;42.584;23.366;2023-02-03T04:25:42;2.70;;;2.27;;
66593;SDS011;53450;42.584;23.366;2023-02-03T04:28:07;4.80;;;3.07;;
66593;SDS011;53450;42.584;23.366;2023-02-03T04:30:33;6.40;;;2.77;;
66593;SDS011;53450;42.584;23.366;2023-02-03T04:32:59;2.37;;;2.20;;
66593;SDS011;53450;42.584;23.366;2023-02-03T04:35:25;2.60;;;1.67;;
66593;SDS011;53450;42.584;23.366;2023-02-03T04:37:50;1.87;;;1.77;;
66593;SDS011;53450;42.584;23.366;2023-02-03T04:40:16;1.97;;;1.87;;
66593;SDS011;53450;42.584;23.366;2023-02-03T04:42:42;2.70;;;2.50;;
66593;SDS011;53450;42.584;23.366;2023-02-03T04:45:08;3.37;;;1.67;;
66593;SDS011;53450;42.584;23.366;2023-02-03T04:47:35;2.93;;;2.63;;
66593;SDS011;53450;42.584;23.366;2023-02-03T04:50:01;2.20;;;2.00;;
66593;SDS011;53450;42.584;23.366;2023-02-03T04:52:27;2.83;;;2.40;;
66593;SDS011;53450;42.584;23.366;2023-02-03T04:55:18;5.07;;;3.27;;
66593;SDS011;53450;42.584;23.366;2023-02-03T04:58:09;3.15;;;2.85;;
66593;SDS011;53450;42.584;23.366;2023-02-03T05:00:35;3.27;;;2.97;;
66593;SDS011;53450;42.584;23.366;2023-02-03T05:03:00;3.23;;;2.50;;
66593;SDS011;53450;42.584;23.366;2023-02-03T05:05:26;3.23;;;2.40;;
66593;SDS011;53450;42.584;23.366;2023-02-03T05:07:51;3.60;;;2.47;;
66593;SDS011;53450;42.584;23.366;2023-02-03T05:10:17;2.77;;;2.57;;
66593;SDS011;53450;42.584;23.366;2023-02-03T05:12:43;2.83;;;2.17;;
66593;SDS011;53450;42.584;23.366;2023-02-03T05:15:14;2.05;;;1.95;;
66593;SDS011;53450;42.584;23.366;2023-02-03T05:17:40;2.07;;;1.97;;
66593;SDS011;53450;42.584;23.366;2023-02-03T05:20:05;4.13;;;2.77;;
66593;SDS011;53450;42.584;23.366;2023-02-03T05:22:31;3.33;;;2.60;;
66593;SDS011;53450;42.584;23.366;2023-02-03T05:24:59;3.40;;;2.40;;
66593;SDS011;53450;42.584;23.366;2023-02-03T05:27:25;2.50;;;2.30;;
66593;SDS011;53450;42.584;23.366;2023-02-03T05:29:54;3.10;;;2.40;;
66593;SDS011;53450;42.584;23.366;2023-02-03T05:32:20;2.13;;;1.83;;
66593;SDS011;53450;42.584;23.366;2023-02-03T05:34:45;4.83;;;3.40;;
66593;SDS011;53450;42.584;23.366;2023-02-03T05:37:11;3.90;;;2.87;;
66593;SDS011;53450;42.584;23.366;2023-02-03T05:39:37;2.73;;;2.13;;
66593;SDS011;53450;42.584;23.366;2023-02-03T05:42:02;2.53;;;2.33;;
66593;SDS011;53450;42.584;23.366;2023-02-03T05:44:29;2.97;;;2.40;;
66593;SDS011;53450;42.584;23.366;2023-02-03T05:46:56;4.30;;;3.47;;
66593;SDS011;53450;42.584;23.366;2023-02-03T05:49:22;6.03;;;3.53;;
66593;SDS011;53450;42.584;23.366;2023-02-03T05:51:52;2.80;;;2.60;;
66593;SDS011;53450;42.584;23.366;2023-02-03T05:54:20;3.92;;;3.20;;
66593;SDS011;53450;42.584;23.366;2023-02-03T05:56:46;8.77;;;3.53;;
66593;SDS011;53450;42.584;23.366;2023-02-03T05:59:12;2.07;;;1.90;;
66593;SDS011;53450;42.584;23.366;2023-02-03T06:01:38;2.80;;;2.60;;
66593;SDS011;53450;42.584;23.366;2023-02-03T06:04:03;4.60;;;3.17;;
66593;SDS011;53450;42.584;23.366;2023-02-03T06:06:29;4.13;;;2.47;;
66593;SDS011;53450;42.584;23.366;2023-02-03T06:08:59;2.13;;;2.03;;
66593;SDS011;53450;42.584;23.366;2023-02-03T06:11:26;2.00;;;1.90;;
66593;SDS011;53450;42.584;23.366;2023-02-03T06:13:52;2.83;;;2.63;;
66593;SDS011;53450;42.584;23.366;2023-02-03T06:16:18;2.37;;;2.20;;
66593;SDS011;53450;42.584;23.366;2023-02-03T06:18:45;3.43;;;2.63;;
66593;SDS011;53450;42.584;23.366;2023-02-03T06:21:10;6.43;;;2.10;;
66593;SDS011;53450;42.584;23.366;2023-02-03T06:23:36;4.77;;;2.40;;
66593;SDS011;53450;42.584;23.366;2023-02-03T06:26:01;4.03;;;2.80;;
66593;SDS011;53450;42.584;23.366;2023-02-03T06:28:27;2.57;;;2.30;;
66593;SDS011;53450;42.584;23.366;2023-02-03T06:30:53;2.87;;;2.67;;
66593;SDS011;53450;42.584;23.366;2023-02-03T06:33:18;7.30;;;3.80;;
66593;SDS011;53450;42.584;23.366;2023-02-03T06:35:44;3.07;;;2.53;;
66593;SDS011;53450;42.584;23.366;2023-02-03T06:38:10;3.10;;;2.53;;
66593;SDS011;53450;42.584;23.366;2023-02-03T06:40:37;2.57;;;2.33;;
66593;SDS011;53450;42.584;23.366;2023-02-03T06:43:02;4.70;;;2.10;;
66593;SDS011;53450;42.584;23.366;2023-02-03T06:45:28;2.77;;;2.50;;
66593;SDS011;53450;42.584;23.366;2023-02-03T06:47:54;8.73;;;2.43;;
66593;SDS011;53450;42.584;23.366;2023-02-03T06:50:20;2.17;;;1.90;;
66593;SDS011;53450;42.584;23.366;2023-02-03T06:52:45;4.80;;;2.47;;
66593;SDS011;53450;42.584;23.366;2023-02-03T06:55:39;6.20;;;2.33;;
66593;SDS011;53450;42.584;23.366;2023-02-03T06:58:30;10.38;;;2.13;;
66593;SDS011;53450;42.584;23.366;2023-02-03T07:00:59;11.47;;;3.13;;
66593;SDS011;53450;42.584;23.366;2023-02-03T07:03:25;1.90;;;1.80;;
66593;SDS011;53450;42.584;23.366;2023-02-03T07:05:51;6.87;;;3.10;;
66593;SDS011;53450;42.584;23.366;2023-02-03T07:08:17;4.63;;;3.10;;
66593;SDS011;53450;42.584;23.366;2023-02-03T07:10:42;5.60;;;3.53;;
66593;SDS011;53450;42.584;23.366;2023-02-03T07:13:12;2.07;;;1.97;;
66593;SDS011;53450;42.584;23.366;2023-02-03T07:15:38;3.10;;;2.90;;
66593;SDS011;53450;42.584;23.366;2023-02-03T07:18:04;2.83;;;2.63;;
66593;SDS011;53450;42.584;23.366;2023-02-03T07:20:29;3.87;;;3.03;;
66593;SDS011;53450;42.584;23.366;2023-02-03T07:22:56;2.17;;;2.07;;
66593;SDS011;53450;42.584;23.366;2023-02-03T07:25:25;2.50;;;2.30;;
66593;SDS011;53450;42.584;23.366;2023-02-03T07:27:52;2.80;;;2.60;;
66593;SDS011;53450;42.584;23.366;2023-02-03T07:30:18;41.00;;;7.37;;
66593;SDS011;53450;42.584;23.366;2023-02-03T07:32:48;4.40;;;3.23;;
66593;SDS011;53450;42.584;23.366;2023-02-03T07:35:14;4.60;;;3.07;;
66593;SDS011;53450;42.584;23.366;2023-02-03T07:37:40;2.27;;;2.17;;
66593;SDS011;53450;42.584;23.366;2023-02-03T07:40:06;2.20;;;2.00;;
66593;SDS011;53450;42.584;23.366;2023-02-03T07:42:33;2.97;;;2.57;;
66593;SDS011;53450;42.584;23.366;2023-02-03T07:45:00;2.03;;;1.93;;
66593;SDS011;53450;42.584;23.366;2023-02-03T07:47:26;2.70;;;2.50;;
66593;SDS011;53450;42.584;23.366;2023-02-03T07:49:51;1.73;;;1.63;;
66593;SDS011;53450;42.584;23.366;2023-02-03T07:52:42;2.00;;;1.90;;
66593;SDS011;53450;42.584;23.366;2023-02-03T07:55:08;1.40;;;1.33;;
66593;SDS011;53450;42.584;23.366;2023-02-03T07:57:34;2.63;;;2.10;;
66593;SDS011;53450;42.584;23.366;2023-02-03T08:00:01;5.03;;;3.67;;
66593;SDS011;53450;42.584;23.366;2023-02-03T08:02:37;8.33;;;4.47;;
66593;SDS011;53450;42.584;23.366;2023-02-03T08:05:03;6.27;;;4.30;;
66593;SDS011;53450;42.584;23.366;2023-02-03T08:07:31;7.43;;;4.77;;
66593;SDS011;53450;42.584;23.366;2023-02-03T08:09:57;7.17;;;4.57;;
66593;SDS011;53450;42.584;23.366;2023-02-03T08:12:22;11.90;;;4.30;;
66593;SDS011;53450;42.584;23.366;2023-02-03T08:14:48;7.17;;;4.67;;
66593;SDS011;53450;42.584;23.366;2023-02-03T08:17:14;13.20;;;6.50;;
66593;SDS011;53450;42.584;23.366;2023-02-03T08:34:16;5.83;;;4.47;;
66593;SDS011;53450;42.584;23.366;2023-02-03T08:37:19;5.67;;;3.30;;
66593;SDS011;53450;42.584;23.366;2023-02-03T08:48:16;7.70;;;3.27;;
66593;SDS011;53450;42.584;23.366;2023-02-03T08:51:43;8.73;;;3.73;;
66593;SDS011;53450;42.584;23.366;2023-02-03T08:56:50;13.77;;;6.93;;
66593;SDS011;53450;42.584;23.366;2023-02-03T08:59:17;2.10;;;1.93;;
66593;SDS011;53450;42.584;23.366;2023-02-03T09:05:22;3.37;;;3.03;;
66593;SDS011;53450;42.584;23.366;2023-02-03T09:08:02;3.17;;;1.95;;
66593;SDS011;53450;42.584;23.366;2023-02-03T09:10:51;4.83;;;3.10;;
66593;SDS011;53450;42.584;23.366;2023-02-03T09:13:18;28.97;;;3.50;;
66593;SDS011;53450;42.584;23.366;2023-02-03T09:22:12;2.20;;;2.00;;
66593;SDS011;53450;42.584;23.366;2023-02-03T09:24:41;2.93;;;1.93;;
66593;SDS011;53450;42.584;23.366;2023-02-03T09:27:07;2.00;;;1.90;;
66593;SDS011;53450;42.584;23.366;2023-02-03T09:29:32;3.47;;;2.60;;
66593;SDS011;53450;42.584;23.366;2023-02-03T09:31:58;3.27;;;2.13;;
66593;SDS011;53450;42.584;23.366;2023-02-03T09:34:24;32.77;;;11.90;;
66593;SDS011;53450;42.584;23.366;2023-02-03T09:36:49;5.53;;;2.80;;
66593;SDS011;53450;42.584;23.366;2023-02-03T09:39:15;8.83;;;3.17;;
66593;SDS011;53450;42.584;23.366;2023-02-03T09:44:16;3.87;;;3.17;;
66593;SDS011;53450;42.584;23.366;2023-02-03T09:47:03;8.00;;;3.50;;
66593;SDS011;53450;42.584;23.366;2023-02-03T09:49:37;2.17;;;1.77;;
66593;SDS011;53450;42.584;23.366;2023-02-03T09:52:20;3.63;;;2.57;;
66593;SDS011;53450;42.584;23.366;2023-02-03T09:55:03;4.93;;;2.73;;
66593;SDS011;53450;42.584;23.366;2023-02-03T09:57:38;5.77;;;3.57;;
66593;SDS011;53450;42.584;23.366;2023-02-03T10:00:22;2.73;;;2.20;;
66593;SDS011;53450;42.584;23.366;2023-02-03T10:02:55;5.87;;;3.23;;
66593;SDS011;53450;42.584;23.366;2023-02-03T10:08:24;1.97;;;1.80;;
66593;SDS011;53450;42.584;23.366;2023-02-03T10:19:54;3.33;;;3.00;;
66593;SDS011;53450;42.584;23.366;2023-02-03T10:22:30;3.63;;;2.90;;
66593;SDS011;53450;42.584;23.366;2023-02-03T10:25:15;2.47;;;2.20;;
66593;SDS011;53450;42.584;23.366;2023-02-03T10:27:45;2.57;;;2.17;;
66593;SDS011;53450;42.584;23.366;2023-02-03T10:32:50;1.83;;;1.37;;
66593;SDS011;53450;42.584;23.366;2023-02-03T10:35:20;2.37;;;2.17;;
66593;SDS011;53450;42.584;23.366;2023-02-03T10:37:54;1.77;;;1.67;;
66593;SDS011;53450;42.584;23.366;2023-02-03T10:40:23;3.43;;;2.10;;
66593;SDS011;53450;42.584;23.366;2023-02-03T10:42:50;2.13;;;1.97;;
66593;SDS011;53450;42.584;23.366;2023-02-03T10:46:00;2.13;;;1.93;;
66593;SDS011;53450;42.584;23.366;2023-02-03T10:50:58;2.60;;;1.67;;
66593;SDS011;53450;42.584;23.366;2023-02-03T10:53:33;4.07;;;2.93;;
66593;SDS011;53450;42.584;23.366;2023-02-03T10:56:01;1.60;;;1.50;;
66593;SDS011;53450;42.584;23.366;2023-02-03T10:58:28;1.70;;;1.60;;
66593;SDS011;53450;42.584;23.366;2023-02-03T11:00:56;2.23;;;2.03;;
66593;SDS011;53450;42.584;23.366;2023-02-03T11:03:29;2.43;;;2.23;;
66593;SDS011;53450;42.584;23.366;2023-02-03T11:06:14;7.37;;;3.80;;
66593;SDS011;53450;42.584;23.366;2023-02-03T11:08:45;10.20;;;3.80;;
66593;SDS011;53450;42.584;23.366;2023-02-03T11:13:51;6.47;;;3.40;;
66593;SDS011;53450;42.584;23.366;2023-02-03T11:16:42;4.40;;;2.93;;
66593;SDS011;53450;42.584;23.366;2023-02-03T11:19:17;2.53;;;2.07;;
66593;SDS011;53450;42.584;23.366;2023-02-03T11:21:49;4.97;;;3.07;;
66593;SDS011;53450;42.584;23.366;2023-02-03T11:24:42;28.80;;;5.43;;
66593;SDS011;53450;42.584;23.366;2023-02-03T11:27:10;6.90;;;4.90;;
66593;SDS011;53450;42.584;23.366;2023-02-03T11:29:41;2.27;;;1.73;;
66593;SDS011;53450;42.584;23.366;2023-02-03T11:32:21;3.47;;;2.63;;
66593;SDS011;53450;42.584;23.366;2023-02-03T11:34:55;4.53;;;2.40;;
66593;SDS011;53450;42.584;23.366;2023-02-03T11:39:55;3.63;;;2.67;;
66593;SDS011;53450;42.584;23.366;2023-02-03T11:42:40;6.30;;;4.23;;
66593;SDS011;53450;42.584;23.366;2023-02-03T11:53:00;5.00;;;3.33;;
66593;SDS011;53450;42.584;23.366;2023-02-03T11:55:41;3.42;;;3.13;;
66593;SDS011;53450;42.584;23.366;2023-02-03T11:58:36;6.40;;;3.70;;
66593;SDS011;53450;42.584;23.366;2023-02-03T12:14:58;9.77;;;5.57;;
66593;SDS011;53450;42.584;23.366;2023-02-03T12:20:16;5.50;;;4.37;;
66593;SDS011;53450;42.584;23.366;2023-02-03T12:37:21;6.83;;;5.00;;
66593;SDS011;53450;42.584;23.366;2023-02-03T12:39:51;9.23;;;5.27;;
66593;SDS011;53450;42.584;23.366;2023-02-03T12:42:24;5.27;;;3.77;;
66593;SDS011;53450;42.584;23.366;2023-02-03T12:45:02;3.77;;;2.90;;
66593;SDS011;53450;42.584;23.366;2023-02-03T12:48:09;9.60;;;6.57;;
66593;SDS011;53450;42.584;23.366;2023-02-03T12:50:49;13.40;;;6.17;;
66593;SDS011;53450;42.584;23.366;2023-02-03T12:53:20;15.37;;;9.47;;
66593;SDS011;53450;42.584;23.366;2023-02-03T12:56:16;4.63;;;3.30;;
66593;SDS011;53450;42.584;23.366;2023-02-03T12:58:55;17.93;;;12.87;;
66593;SDS011;53450;42.584;23.366;2023-02-03T13:01:27;16.07;;;7.53;;
66593;SDS011;53450;42.584;23.366;2023-02-03T13:03:59;9.18;;;6.00;;
66593;SDS011;53450;42.584;23.366;2023-02-03T13:09:38;3.27;;;2.70;;
66593;SDS011;53450;42.584;23.366;2023-02-03T13:12:58;4.80;;;3.17;;
66593;SDS011;53450;42.584;23.366;2023-02-03T13:15:38;18.73;;;11.37;;
66593;SDS011;53450;42.584;23.366;2023-02-03T13:18:35;12.63;;;8.30;;
66593;SDS011;53450;42.584;23.366;2023-02-03T13:21:11;11.27;;;3.20;;
66593;SDS011;53450;42.584;23.366;2023-02-03T13:23:39;4.00;;;2.53;;
66593;SDS011;53450;42.584;23.366;2023-02-03T13:42:37;22.43;;;11.73;;
66593;SDS011;53450;42.584;23.366;2023-02-03T13:45:17;6.47;;;4.80;;
66593;SDS011;53450;42.584;23.366;2023-02-03T13:47:53;11.67;;;6.73;;
66593;SDS011;53450;42.584;23.366;2023-02-03T13:50:40;46.27;;;18.60;;
66593;SDS011;53450;42.584;23.366;2023-02-03T13:53:27;21.27;;;9.73;;
66593;SDS011;53450;42.584;23.366;2023-02-03T13:55:59;29.17;;;12.57;;
66593;SDS011;53450;42.584;23.366;2023-02-03T13:58:29;3.83;;;3.17;;
66593;SDS011;53450;42.584;23.366;2023-02-03T14:05:50;9.73;;;5.00;;
66593;SDS011;53450;42.584;23.366;2023-02-03T14:16:37;45.10;;;14.67;;
66593;SDS011;53450;42.584;23.366;2023-02-03T14:19:11;22.77;;;10.40;;
66593;SDS011;53450;42.584;23.366;2023-02-03T14:21:58;10.43;;;7.83;;
66593;SDS011;53450;42.584;23.366;2023-02-03T14:24:30;12.17;;;7.67;;
66593;SDS011;53450;42.584;23.366;2023-02-03T14:26:58;13.07;;;8.20;;
66593;SDS011;53450;42.584;23.366;2023-02-03T14:29:28;6.50;;;5.07;;
66593;SDS011;53450;42.584;23.366;2023-02-03T14:34:47;5.37;;;4.30;;
66593;SDS011;53450;42.584;23.366;2023-02-03T15:02:30;26.90;;;11.30;;
66593;SDS011;53450;42.584;23.366;2023-02-03T15:07:48;62.78;;;19.17;;
66593;SDS011;53450;42.584;23.366;2023-02-03T15:10:16;80.63;;;24.83;;
66593;SDS011;53450;42.584;23.366;2023-02-03T15:13:23;71.55;;;26.80;;
66593;SDS011;53450;42.584;23.366;2023-02-03T15:16:22;86.30;;;26.00;;
66593;SDS011;53450;42.584;23.366;2023-02-03T15:18:53;47.13;;;13.50;;
66593;SDS011;53450;42.584;23.366;2023-02-03T15:21:27;15.93;;;7.47;;
66593;SDS011;53450;42.584;23.366;2023-02-03T15:23:52;44.80;;;20.77;;
66593;SDS011;53450;42.584;23.366;2023-02-03T15:26:19;38.87;;;16.90;;
66593;SDS011;53450;42.584;23.366;2023-02-03T15:31:51;84.47;;;26.00;;
66593;SDS011;53450;42.584;23.366;2023-02-03T15:34:27;122.57;;;36.60;;
66593;SDS011;53450;42.584;23.366;2023-02-03T15:36:58;31.07;;;12.47;;
66593;SDS011;53450;42.584;23.366;2023-02-03T15:39:35;20.40;;;9.70;;
66593;SDS011;53450;42.584;23.366;2023-02-03T15:42:23;41.83;;;16.10;;
66593;SDS011;53450;42.584;23.366;2023-02-03T15:48:01;73.23;;;31.07;;
66593;SDS011;53450;42.584;23.366;2023-02-03T15:50:51;74.07;;;29.13;;
66593;SDS011;53450;42.584;23.366;2023-02-03T15:53:25;87.20;;;25.37;;
66593;SDS011;53450;42.584;23.366;2023-02-03T15:55:55;46.28;;;16.38;;
66593;SDS011;53450;42.584;23.366;2023-02-03T15:58:28;274.93;;;68.00;;
66593;SDS011;53450;42.584;23.366;2023-02-03T16:01:00;52.90;;;22.40;;
66593;SDS011;53450;42.584;23.366;2023-02-03T16:03:34;81.70;;;24.00;;
66593;SDS011;53450;42.584;23.366;2023-02-03T16:08:43;19.20;;;7.00;;
66593;SDS011;53450;42.584;23.366;2023-02-03T16:13:59;14.40;;;8.30;;
66593;SDS011;53450;42.584;23.366;2023-02-03T16:16:34;30.08;;;10.02;;
66593;SDS011;53450;42.584;23.366;2023-02-03T16:19:29;47.70;;;12.63;;
66593;SDS011;53450;42.584;23.366;2023-02-03T16:22:02;35.83;;;9.73;;
66593;SDS011;53450;42.584;23.366;2023-02-03T16:24:33;33.77;;;12.23;;
66593;SDS011;53450;42.584;23.366;2023-02-03T16:29:43;13.40;;;8.57;;
66593;SDS011;53450;42.584;23.366;2023-02-03T16:32:28;13.60;;;6.77;;
66593;SDS011;53450;42.584;23.366;2023-02-03T16:35:12;23.97;;;7.77;;
66593;SDS011;53450;42.584;23.366;2023-02-03T16:38:03;17.87;;;8.63;;
66593;SDS011;53450;42.584;23.366;2023-02-03T16:40:48;16.60;;;8.70;;
66593;SDS011;53450;42.584;23.366;2023-02-03T16:43:57;25.60;;;9.77;;
66593;SDS011;53450;42.584;23.366;2023-02-03T16:47:24;143.17;;;47.67;;
66593;SDS011;53450;42.584;23.366;2023-02-03T16:50:22;65.87;;;28.10;;
66593;SDS011;53450;42.584;23.366;2023-02-03T16:53:14;71.57;;;18.87;;
66593;SDS011;53450;42.584;23.366;2023-02-03T16:55:44;25.27;;;10.83;;
66593;SDS011;53450;42.584;23.366;2023-02-03T16:58:09;7.97;;;4.00;;
66593;SDS011;53450;42.584;23.366;2023-02-03T17:00:40;8.57;;;4.40;;
66593;SDS011;53450;42.584;23.366;2023-02-03T17:03:08;25.03;;;12.10;;
66593;SDS011;53450;42.584;23.366;2023-02-03T17:05:36;156.87;;;54.70;;
66593;SDS011;53450;42.584;23.366;2023-02-03T17:08:03;43.07;;;15.43;;
66593;SDS011;53450;42.584;23.366;2023-02-03T17:10:29;38.47;;;15.63;;
66593;SDS011;53450;42.584;23.366;2023-02-03T17:12:54;19.57;;;7.33;;
66593;SDS011;53450;42.584;23.366;2023-02-03T17:15:20;80.50;;;29.90;;
66593;SDS011;53450;42.584;23.366;2023-02-03T17:17:45;34.03;;;12.83;;
66593;SDS011;53450;42.584;23.366;2023-02-03T17:20:11;25.67;;;15.00;;
66593;SDS011;53450;42.584;23.366;2023-02-03T17:22:37;55.20;;;31.03;;
66593;SDS011;53450;42.584;23.366;2023-02-03T17:25:02;73.10;;;31.67;;
66593;SDS011;53450;42.584;23.366;2023-02-03T17:27:28;64.97;;;27.20;;
66593;SDS011;53450;42.584;23.366;2023-02-03T17:29:54;47.43;;;24.43;;
66593;SDS011;53450;42.584;23.366;2023-02-03T17:32:48;17.88;;;8.07;;
66593;SDS011;53450;42.584;23.366;2023-02-03T17:35:14;56.27;;;24.03;;
66593;SDS011;53450;42.584;23.366;2023-02-03T17:37:45;19.07;;;10.53;;
66593;SDS011;53450;42.584;23.366;2023-02-03T17:40:10;55.70;;;21.67;;
66593;SDS011;53450;42.584;23.366;2023-02-03T17:42:36;49.97;;;21.00;;
66593;SDS011;53450;42.584;23.366;2023-02-03T17:45:01;30.23;;;13.13;;
66593;SDS011;53450;42.584;23.366;2023-02-03T17:47:27;29.00;;;13.37;;
66593;SDS011;53450;42.584;23.366;2023-02-03T17:49:55;47.30;;;20.97;;
66593;SDS011;53450;42.584;23.366;2023-02-03T17:52:20;25.87;;;11.77;;
66593;SDS011;53450;42.584;23.366;2023-02-03T17:54:46;31.23;;;14.97;;
66593;SDS011;53450;42.584;23.366;2023-02-03T17:57:11;34.43;;;16.23;;
66593;SDS011;53450;42.584;23.366;2023-02-03T17:59:37;45.67;;;21.73;;
66593;SDS011;53450;42.584;23.366;2023-02-03T18:02:04;9.60;;;5.10;;
66593;SDS011;53450;42.584;23.366;2023-02-03T18:04:55;45.92;;;12.23;;
66593;SDS011;53450;42.584;23.366;2023-02-03T18:07:21;10.90;;;5.17;;
66593;SDS011;53450;42.584;23.366;2023-02-03T18:09:46;17.93;;;9.93;;
66593;SDS011;53450;42.584;23.366;2023-02-03T18:12:12;17.17;;;6.80;;
66593;SDS011;53450;42.584;23.366;2023-02-03T18:14:37;6.67;;;4.80;;
66593;SDS011;53450;42.584;23.366;2023-02-03T18:17:03;18.90;;;11.37;;
66593;SDS011;53450;42.584;23.366;2023-02-03T18:19:29;29.03;;;15.10;;
66593;SDS011;53450;42.584;23.366;2023-02-03T18:21:54;32.53;;;16.40;;